Airfield :
LOGIN :

Register | Disclaimer

   EN    FR    IT 

 










Legend :    VFR   Marginal VFR   IFR   Intensive IFR   Very Intensive IFR
Visi :
Ceiling :
>= 8 km
>= 3000ft
5 to 8 km
1000 to 3000 ft
1500m to 5 km
500 to 1000 ft
800 to 1500m
200 to 500 ft
< 800m
< 200 ft
Symbols :   Thunderstorms  Fog  Heavy snow  Heavy precipitations  Wind > 20 kt
SIGMETs :     Misc.  Thunderstorms  Icing  Turbulence  Mountain Waves  Volcanic Ashes






- Airport Elevation : 427 ft
- IATA code : KBP


UKBB - Boryspil'

CURRENT METAR :
  • 140600Z 13006MPS 4700 BR OVC008 07/06 Q1021 R88/D TEMPO 2000 BR BKN006

EXPIRED METARs :
  • 140530Z 14006MPS 4600 BR OVC008 07/06 Q1021 R88/CLRD// TEMPO 2000 BR BKN006
  • 140500Z 14005MPS 4800 BR OVC008 08/06 Q1021 R88/D NOSIG
  • 140430Z 14005MPS 7000 OVC008 08/06 Q1021 R88/CLRD// NOSIG
  • 140400Z 15005MPS 7000 OVC007 08/07 Q1021 R88/D NOSIG
  • 140330Z 14005MPS 7000 OVC006 07/07 Q1020 R88/CLRD// NOSIG

TAF TAF UKBB
Valid from the 14 at 06:00 until the 15 at 06:00 UTC


140501Z 1406/1506 13006G12MPS 6000 BKN008 TX11/1412Z TN03/1505Z
TEMPO 1406/1409 1600 BR BKN006
TEMPO 1418/1506 1000 BR BKN003



MET'MAP, your aeronautical weather chart ! - Copyright ORBIFLY December 2007 - Disclaimer

ORBIFLY MET'MAP TEAM :

Programming & Development : Alexandra Zaïnal
Concept & Development : Baudouin d'Aumeries
Co-Development & Prog : Marc-Olivier Méhu
Technical & hardware support : Manuel Goepfert

Contact : metmap@orbifly.com




SOURCES & CREDITS :

   NOAA